sensor_id;sensor_type;location;lat;lon;timestamp;P1;durP1;ratioP1;P2;durP2;ratioP2
23155;SDS011;11746;50.876;4.246;2024-01-27T00:02:12;8.98;;;3.42;;
23155;SDS011;11746;50.876;4.246;2024-01-27T00:04:38;13.85;;;4.03;;
23155;SDS011;11746;50.876;4.246;2024-01-27T00:07:03;13.38;;;3.97;;
23155;SDS011;11746;50.876;4.246;2024-01-27T00:09:33;11.93;;;4.72;;
23155;SDS011;11746;50.876;4.246;2024-01-27T00:11:59;11.63;;;3.97;;
23155;SDS011;11746;50.876;4.246;2024-01-27T00:14:25;15.27;;;4.95;;
23155;SDS011;11746;50.876;4.246;2024-01-27T00:16:50;11.23;;;4.55;;
23155;SDS011;11746;50.876;4.246;2024-01-27T00:19:16;9.98;;;4.28;;
23155;SDS011;11746;50.876;4.246;2024-01-27T00:21:41;11.65;;;4.40;;
23155;SDS011;11746;50.876;4.246;2024-01-27T00:24:09;12.35;;;4.50;;
23155;SDS011;11746;50.876;4.246;2024-01-27T00:26:35;15.93;;;4.65;;
23155;SDS011;11746;50.876;4.246;2024-01-27T00:29:03;9.02;;;4.03;;
23155;SDS011;11746;50.876;4.246;2024-01-27T00:31:31;12.43;;;4.38;;
23155;SDS011;11746;50.876;4.246;2024-01-27T00:33:56;15.63;;;3.97;;
23155;SDS011;11746;50.876;4.246;2024-01-27T00:36:24;9.30;;;3.60;;
23155;SDS011;11746;50.876;4.246;2024-01-27T00:38:52;10.10;;;3.95;;
23155;SDS011;11746;50.876;4.246;2024-01-27T00:41:20;11.23;;;3.80;;
23155;SDS011;11746;50.876;4.246;2024-01-27T00:43:46;12.93;;;4.22;;
23155;SDS011;11746;50.876;4.246;2024-01-27T00:46:16;11.57;;;3.75;;
23155;SDS011;11746;50.876;4.246;2024-01-27T00:48:43;13.55;;;4.15;;
23155;SDS011;11746;50.876;4.246;2024-01-27T00:51:11;12.00;;;4.50;;
23155;SDS011;11746;50.876;4.246;2024-01-27T00:53:37;15.95;;;4.10;;
23155;SDS011;11746;50.876;4.246;2024-01-27T00:56:04;11.65;;;4.40;;
23155;SDS011;11746;50.876;4.246;2024-01-27T00:58:29;9.63;;;3.40;;
23155;SDS011;11746;50.876;4.246;2024-01-27T01:00:56;11.15;;;3.78;;
23155;SDS011;11746;50.876;4.246;2024-01-27T01:03:23;12.00;;;4.18;;
23155;SDS011;11746;50.876;4.246;2024-01-27T01:05:49;11.52;;;4.20;;
23155;SDS011;11746;50.876;4.246;2024-01-27T01:08:19;13.75;;;3.63;;
23155;SDS011;11746;50.876;4.246;2024-01-27T01:10:44;15.75;;;4.82;;
23155;SDS011;11746;50.876;4.246;2024-01-27T01:13:10;15.50;;;4.75;;
23155;SDS011;11746;50.876;4.246;2024-01-27T01:15:38;17.42;;;4.30;;
23155;SDS011;11746;50.876;4.246;2024-01-27T01:18:04;10.45;;;4.20;;
23155;SDS011;11746;50.876;4.246;2024-01-27T01:20:30;11.13;;;4.07;;
23155;SDS011;11746;50.876;4.246;2024-01-27T01:22:57;10.18;;;3.92;;
23155;SDS011;11746;50.876;4.246;2024-01-27T01:25:23;10.65;;;4.32;;
23155;SDS011;11746;50.876;4.246;2024-01-27T01:27:51;12.82;;;3.63;;
23155;SDS011;11746;50.876;4.246;2024-01-27T01:30:19;10.10;;;3.80;;
23155;SDS011;11746;50.876;4.246;2024-01-27T01:32:45;8.98;;;4.07;;
23155;SDS011;11746;50.876;4.246;2024-01-27T01:35:13;9.18;;;3.72;;
23155;SDS011;11746;50.876;4.246;2024-01-27T01:37:39;9.48;;;4.18;;
23155;SDS011;11746;50.876;4.246;2024-01-27T01:40:07;8.50;;;3.75;;
23155;SDS011;11746;50.876;4.246;2024-01-27T01:42:33;9.20;;;3.95;;
23155;SDS011;11746;50.876;4.246;2024-01-27T01:44:58;12.38;;;4.35;;
23155;SDS011;11746;50.876;4.246;2024-01-27T01:47:24;10.05;;;4.30;;
23155;SDS011;11746;50.876;4.246;2024-01-27T01:49:50;14.32;;;4.22;;
23155;SDS011;11746;50.876;4.246;2024-01-27T01:52:20;13.52;;;4.45;;
23155;SDS011;11746;50.876;4.246;2024-01-27T01:54:49;12.13;;;4.07;;
23155;SDS011;11746;50.876;4.246;2024-01-27T01:57:16;11.35;;;4.30;;
23155;SDS011;11746;50.876;4.246;2024-01-27T01:59:42;10.68;;;4.55;;
23155;SDS011;11746;50.876;4.246;2024-01-27T02:02:10;9.60;;;4.10;;
23155;SDS011;11746;50.876;4.246;2024-01-27T02:04:43;15.70;;;4.60;;
23155;SDS011;11746;50.876;4.246;2024-01-27T02:07:14;12.32;;;4.55;;
23155;SDS011;11746;50.876;4.246;2024-01-27T02:09:40;8.57;;;4.40;;
23155;SDS011;11746;50.876;4.246;2024-01-27T02:12:09;10.00;;;4.28;;
23155;SDS011;11746;50.876;4.246;2024-01-27T02:14:34;13.70;;;4.78;;
23155;SDS011;11746;50.876;4.246;2024-01-27T02:17:02;11.43;;;4.53;;
23155;SDS011;11746;50.876;4.246;2024-01-27T02:19:29;13.80;;;5.28;;
23155;SDS011;11746;50.876;4.246;2024-01-27T02:21:54;10.23;;;4.60;;
23155;SDS011;11746;50.876;4.246;2024-01-27T02:24:20;9.70;;;4.43;;
23155;SDS011;11746;50.876;4.246;2024-01-27T02:26:48;13.18;;;5.07;;
23155;SDS011;11746;50.876;4.246;2024-01-27T02:29:16;11.15;;;5.03;;
23155;SDS011;11746;50.876;4.246;2024-01-27T02:31:47;11.43;;;5.00;;
23155;SDS011;11746;50.876;4.246;2024-01-27T02:34:12;10.57;;;4.97;;
23155;SDS011;11746;50.876;4.246;2024-01-27T02:36:38;13.55;;;4.95;;
23155;SDS011;11746;50.876;4.246;2024-01-27T02:39:04;10.73;;;4.60;;
23155;SDS011;11746;50.876;4.246;2024-01-27T02:41:29;13.38;;;4.95;;
23155;SDS011;11746;50.876;4.246;2024-01-27T02:44:00;9.93;;;4.45;;
23155;SDS011;11746;50.876;4.246;2024-01-27T02:46:26;11.13;;;4.85;;
23155;SDS011;11746;50.876;4.246;2024-01-27T02:48:51;10.43;;;4.82;;
23155;SDS011;11746;50.876;4.246;2024-01-27T02:51:20;11.48;;;4.60;;
23155;SDS011;11746;50.876;4.246;2024-01-27T02:53:46;9.77;;;4.60;;
23155;SDS011;11746;50.876;4.246;2024-01-27T02:56:15;10.95;;;5.03;;
23155;SDS011;11746;50.876;4.246;2024-01-27T02:58:41;13.77;;;4.63;;
23155;SDS011;11746;50.876;4.246;2024-01-27T03:01:09;10.07;;;4.47;;
23155;SDS011;11746;50.876;4.246;2024-01-27T03:03:37;12.38;;;4.85;;
23155;SDS011;11746;50.876;4.246;2024-01-27T03:06:05;12.45;;;5.43;;
23155;SDS011;11746;50.876;4.246;2024-01-27T03:08:33;12.02;;;5.10;;
23155;SDS011;11746;50.876;4.246;2024-01-27T03:10:59;13.18;;;5.13;;
23155;SDS011;11746;50.876;4.246;2024-01-27T03:13:27;16.02;;;5.20;;
23155;SDS011;11746;50.876;4.246;2024-01-27T03:15:53;14.32;;;4.82;;
23155;SDS011;11746;50.876;4.246;2024-01-27T03:18:18;11.50;;;5.30;;
23155;SDS011;11746;50.876;4.246;2024-01-27T03:20:44;11.88;;;4.60;;
23155;SDS011;11746;50.876;4.246;2024-01-27T03:23:09;14.45;;;5.13;;
23155;SDS011;11746;50.876;4.246;2024-01-27T03:25:37;13.02;;;4.75;;
23155;SDS011;11746;50.876;4.246;2024-01-27T03:28:05;12.55;;;5.20;;
23155;SDS011;11746;50.876;4.246;2024-01-27T03:30:33;12.93;;;4.95;;
23155;SDS011;11746;50.876;4.246;2024-01-27T03:32:59;13.57;;;5.53;;
23155;SDS011;11746;50.876;4.246;2024-01-27T03:35:26;10.10;;;5.03;;
23155;SDS011;11746;50.876;4.246;2024-01-27T03:37:52;17.00;;;6.00;;
23155;SDS011;11746;50.876;4.246;2024-01-27T03:40:18;11.57;;;5.32;;
23155;SDS011;11746;50.876;4.246;2024-01-27T03:42:43;14.27;;;5.57;;
23155;SDS011;11746;50.876;4.246;2024-01-27T03:45:09;16.25;;;5.75;;
23155;SDS011;11746;50.876;4.246;2024-01-27T03:47:34;11.70;;;5.15;;
23155;SDS011;11746;50.876;4.246;2024-01-27T03:50:02;13.02;;;5.30;;
23155;SDS011;11746;50.876;4.246;2024-01-27T03:52:28;15.70;;;5.18;;
23155;SDS011;11746;50.876;4.246;2024-01-27T03:54:56;11.07;;;5.45;;
23155;SDS011;11746;50.876;4.246;2024-01-27T03:57:24;15.00;;;5.35;;
23155;SDS011;11746;50.876;4.246;2024-01-27T03:59:50;14.57;;;5.50;;
23155;SDS011;11746;50.876;4.246;2024-01-27T04:02:18;13.50;;;5.47;;
23155;SDS011;11746;50.876;4.246;2024-01-27T04:04:44;16.50;;;5.85;;
23155;SDS011;11746;50.876;4.246;2024-01-27T04:07:09;13.02;;;5.68;;
23155;SDS011;11746;50.876;4.246;2024-01-27T04:09:35;13.48;;;5.70;;
23155;SDS011;11746;50.876;4.246;2024-01-27T04:12:00;13.50;;;5.90;;
23155;SDS011;11746;50.876;4.246;2024-01-27T04:14:28;10.73;;;5.38;;
23155;SDS011;11746;50.876;4.246;2024-01-27T04:16:56;13.68;;;5.60;;
23155;SDS011;11746;50.876;4.246;2024-01-27T04:19:22;18.63;;;5.90;;
23155;SDS011;11746;50.876;4.246;2024-01-27T04:21:50;17.58;;;5.82;;
23155;SDS011;11746;50.876;4.246;2024-01-27T04:24:15;15.73;;;5.68;;
23155;SDS011;11746;50.876;4.246;2024-01-27T04:26:41;15.23;;;6.05;;
23155;SDS011;11746;50.876;4.246;2024-01-27T04:29:06;11.15;;;5.63;;
23155;SDS011;11746;50.876;4.246;2024-01-27T04:31:33;13.38;;;5.47;;
23155;SDS011;11746;50.876;4.246;2024-01-27T04:34:03;14.50;;;5.45;;
23155;SDS011;11746;50.876;4.246;2024-01-27T04:36:31;15.38;;;5.53;;
23155;SDS011;11746;50.876;4.246;2024-01-27T04:38:59;13.48;;;5.40;;
23155;SDS011;11746;50.876;4.246;2024-01-27T04:41:30;10.52;;;5.13;;
23155;SDS011;11746;50.876;4.246;2024-01-27T04:43:55;13.52;;;5.60;;
23155;SDS011;11746;50.876;4.246;2024-01-27T04:46:24;15.23;;;5.95;;
23155;SDS011;11746;50.876;4.246;2024-01-27T04:48:49;16.30;;;7.00;;
23155;SDS011;11746;50.876;4.246;2024-01-27T04:51:15;14.25;;;6.07;;
23155;SDS011;11746;50.876;4.246;2024-01-27T04:53:43;13.15;;;5.43;;
23155;SDS011;11746;50.876;4.246;2024-01-27T04:56:11;11.05;;;5.10;;
23155;SDS011;11746;50.876;4.246;2024-01-27T04:58:38;11.65;;;5.53;;
23155;SDS011;11746;50.876;4.246;2024-01-27T05:01:03;13.07;;;5.63;;
23155;SDS011;11746;50.876;4.246;2024-01-27T05:03:29;16.35;;;5.55;;
23155;SDS011;11746;50.876;4.246;2024-01-27T05:05:54;12.20;;;5.15;;
23155;SDS011;11746;50.876;4.246;2024-01-27T05:08:20;12.88;;;5.60;;
23155;SDS011;11746;50.876;4.246;2024-01-27T05:10:46;11.00;;;5.20;;
23155;SDS011;11746;50.876;4.246;2024-01-27T05:13:13;12.18;;;6.00;;
23155;SDS011;11746;50.876;4.246;2024-01-27T05:15:42;15.13;;;5.38;;
23155;SDS011;11746;50.876;4.246;2024-01-27T05:18:07;11.98;;;6.03;;
23155;SDS011;11746;50.876;4.246;2024-01-27T05:20:33;14.18;;;5.15;;
23155;SDS011;11746;50.876;4.246;2024-01-27T05:22:58;14.80;;;5.63;;
23155;SDS011;11746;50.876;4.246;2024-01-27T05:25:27;13.52;;;5.60;;
23155;SDS011;11746;50.876;4.246;2024-01-27T05:27:52;15.52;;;6.28;;
23155;SDS011;11746;50.876;4.246;2024-01-27T05:30:20;13.48;;;5.93;;
23155;SDS011;11746;50.876;4.246;2024-01-27T05:32:46;16.65;;;5.90;;
23155;SDS011;11746;50.876;4.246;2024-01-27T05:35:11;12.73;;;5.35;;
23155;SDS011;11746;50.876;4.246;2024-01-27T05:37:39;16.00;;;5.68;;
23155;SDS011;11746;50.876;4.246;2024-01-27T05:40:06;17.70;;;5.47;;
23155;SDS011;11746;50.876;4.246;2024-01-27T05:42:32;13.30;;;5.45;;
23155;SDS011;11746;50.876;4.246;2024-01-27T05:45:02;14.00;;;5.43;;
23155;SDS011;11746;50.876;4.246;2024-01-27T05:47:29;12.27;;;5.63;;
23155;SDS011;11746;50.876;4.246;2024-01-27T05:49:59;14.75;;;5.50;;
23155;SDS011;11746;50.876;4.246;2024-01-27T05:52:25;12.65;;;5.03;;
23155;SDS011;11746;50.876;4.246;2024-01-27T05:54:50;16.98;;;6.03;;
23155;SDS011;11746;50.876;4.246;2024-01-27T05:57:19;17.52;;;5.22;;
23155;SDS011;11746;50.876;4.246;2024-01-27T05:59:45;17.30;;;6.72;;
23155;SDS011;11746;50.876;4.246;2024-01-27T06:02:11;14.88;;;5.72;;
23155;SDS011;11746;50.876;4.246;2024-01-27T06:04:36;17.55;;;6.15;;
23155;SDS011;11746;50.876;4.246;2024-01-27T06:07:02;14.18;;;5.53;;
23155;SDS011;11746;50.876;4.246;2024-01-27T06:09:28;20.10;;;6.55;;
23155;SDS011;11746;50.876;4.246;2024-01-27T06:11:57;15.20;;;6.18;;
23155;SDS011;11746;50.876;4.246;2024-01-27T06:14:24;17.85;;;5.82;;
23155;SDS011;11746;50.876;4.246;2024-01-27T06:16:55;13.00;;;6.10;;
23155;SDS011;11746;50.876;4.246;2024-01-27T06:19:20;12.75;;;6.05;;
23155;SDS011;11746;50.876;4.246;2024-01-27T06:21:46;17.33;;;6.38;;
23155;SDS011;11746;50.876;4.246;2024-01-27T06:24:13;15.63;;;6.07;;
23155;SDS011;11746;50.876;4.246;2024-01-27T06:26:40;19.55;;;6.45;;
23155;SDS011;11746;50.876;4.246;2024-01-27T06:29:05;19.55;;;6.50;;
23155;SDS011;11746;50.876;4.246;2024-01-27T06:31:31;15.30;;;6.75;;
23155;SDS011;11746;50.876;4.246;2024-01-27T06:33:59;17.67;;;6.68;;
23155;SDS011;11746;50.876;4.246;2024-01-27T06:36:27;18.60;;;6.75;;
23155;SDS011;11746;50.876;4.246;2024-01-27T06:38:57;16.58;;;6.22;;
23155;SDS011;11746;50.876;4.246;2024-01-27T06:41:23;15.05;;;5.97;;
23155;SDS011;11746;50.876;4.246;2024-01-27T06:43:49;17.13;;;6.07;;
23155;SDS011;11746;50.876;4.246;2024-01-27T06:46:14;13.27;;;6.00;;
23155;SDS011;11746;50.876;4.246;2024-01-27T06:48:40;15.02;;;6.28;;
23155;SDS011;11746;50.876;4.246;2024-01-27T06:51:08;13.40;;;6.03;;
23155;SDS011;11746;50.876;4.246;2024-01-27T06:53:33;12.88;;;5.95;;
23155;SDS011;11746;50.876;4.246;2024-01-27T06:56:02;18.17;;;7.10;;
23155;SDS011;11746;50.876;4.246;2024-01-27T06:58:27;15.80;;;7.57;;
23155;SDS011;11746;50.876;4.246;2024-01-27T07:00:53;12.98;;;6.80;;
23155;SDS011;11746;50.876;4.246;2024-01-27T07:03:19;15.07;;;7.18;;
23155;SDS011;11746;50.876;4.246;2024-01-27T07:05:45;12.43;;;6.13;;
23155;SDS011;11746;50.876;4.246;2024-01-27T07:08:10;12.27;;;6.75;;
23155;SDS011;11746;50.876;4.246;2024-01-27T07:10:36;13.35;;;5.82;;
23155;SDS011;11746;50.876;4.246;2024-01-27T07:13:05;14.95;;;6.10;;
23155;SDS011;11746;50.876;4.246;2024-01-27T07:15:31;13.20;;;5.30;;
23155;SDS011;11746;50.876;4.246;2024-01-27T07:17:57;15.07;;;6.10;;
23155;SDS011;11746;50.876;4.246;2024-01-27T07:20:24;19.23;;;6.07;;
23155;SDS011;11746;50.876;4.246;2024-01-27T07:22:50;15.98;;;6.28;;
23155;SDS011;11746;50.876;4.246;2024-01-27T07:25:18;12.63;;;5.88;;
23155;SDS011;11746;50.876;4.246;2024-01-27T07:27:44;12.40;;;6.13;;
23155;SDS011;11746;50.876;4.246;2024-01-27T07:30:09;14.60;;;5.95;;
23155;SDS011;11746;50.876;4.246;2024-01-27T07:32:39;16.17;;;5.60;;
23155;SDS011;11746;50.876;4.246;2024-01-27T07:35:09;13.75;;;5.85;;
23155;SDS011;11746;50.876;4.246;2024-01-27T07:37:36;16.88;;;6.13;;
23155;SDS011;11746;50.876;4.246;2024-01-27T07:40:02;16.70;;;5.68;;
23155;SDS011;11746;50.876;4.246;2024-01-27T07:42:28;16.42;;;6.13;;
23155;SDS011;11746;50.876;4.246;2024-01-27T07:44:56;13.02;;;5.95;;
23155;SDS011;11746;50.876;4.246;2024-01-27T07:47:22;19.55;;;6.35;;
23155;SDS011;11746;50.876;4.246;2024-01-27T07:49:50;14.40;;;5.40;;
23155;SDS011;11746;50.876;4.246;2024-01-27T07:52:18;13.93;;;5.40;;
23155;SDS011;11746;50.876;4.246;2024-01-27T07:54:44;16.38;;;5.68;;
23155;SDS011;11746;50.876;4.246;2024-01-27T07:57:10;14.23;;;5.13;;
23155;SDS011;11746;50.876;4.246;2024-01-27T07:59:40;13.45;;;5.20;;
23155;SDS011;11746;50.876;4.246;2024-01-27T08:02:06;14.57;;;5.47;;
23155;SDS011;11746;50.876;4.246;2024-01-27T08:04:32;18.45;;;5.50;;
23155;SDS011;11746;50.876;4.246;2024-01-27T08:06:57;14.60;;;5.32;;
23155;SDS011;11746;50.876;4.246;2024-01-27T08:09:23;20.10;;;5.18;;
23155;SDS011;11746;50.876;4.246;2024-01-27T08:11:52;13.25;;;5.43;;
23155;SDS011;11746;50.876;4.246;2024-01-27T08:14:18;21.77;;;5.70;;
23155;SDS011;11746;50.876;4.246;2024-01-27T08:16:44;15.73;;;4.75;;
23155;SDS011;11746;50.876;4.246;2024-01-27T08:19:10;13.38;;;5.15;;
23155;SDS011;11746;50.876;4.246;2024-01-27T08:21:38;14.90;;;4.80;;
23155;SDS011;11746;50.876;4.246;2024-01-27T08:24:06;13.35;;;4.68;;
23155;SDS011;11746;50.876;4.246;2024-01-27T08:26:32;17.20;;;4.43;;
23155;SDS011;11746;50.876;4.246;2024-01-27T08:28:57;19.95;;;4.80;;
23155;SDS011;11746;50.876;4.246;2024-01-27T08:31:26;13.02;;;5.13;;
23155;SDS011;11746;50.876;4.246;2024-01-27T08:33:51;11.93;;;5.10;;
23155;SDS011;11746;50.876;4.246;2024-01-27T08:36:17;11.00;;;4.70;;
23155;SDS011;11746;50.876;4.246;2024-01-27T08:38:43;11.25;;;4.70;;
23155;SDS011;11746;50.876;4.246;2024-01-27T08:41:10;13.65;;;5.20;;
23155;SDS011;11746;50.876;4.246;2024-01-27T08:43:38;12.85;;;4.20;;
23155;SDS011;11746;50.876;4.246;2024-01-27T08:46:04;13.40;;;4.47;;
23155;SDS011;11746;50.876;4.246;2024-01-27T08:48:30;13.18;;;4.60;;
23155;SDS011;11746;50.876;4.246;2024-01-27T08:50:55;12.90;;;4.65;;
23155;SDS011;11746;50.876;4.246;2024-01-27T08:53:21;11.77;;;4.90;;
23155;SDS011;11746;50.876;4.246;2024-01-27T08:55:46;19.75;;;4.88;;
23155;SDS011;11746;50.876;4.246;2024-01-27T08:58:15;14.27;;;4.55;;
23155;SDS011;11746;50.876;4.246;2024-01-27T09:00:43;13.73;;;4.20;;
23155;SDS011;11746;50.876;4.246;2024-01-27T09:03:08;15.90;;;4.28;;
23155;SDS011;11746;50.876;4.246;2024-01-27T09:05:34;14.35;;;4.65;;
23155;SDS011;11746;50.876;4.246;2024-01-27T09:07:59;14.48;;;4.00;;
23155;SDS011;11746;50.876;4.246;2024-01-27T09:10:25;13.07;;;3.97;;
23155;SDS011;11746;50.876;4.246;2024-01-27T09:12:51;13.50;;;4.47;;
23155;SDS011;11746;50.876;4.246;2024-01-27T09:15:16;13.55;;;4.97;;
23155;SDS011;11746;50.876;4.246;2024-01-27T09:17:44;15.68;;;5.10;;
23155;SDS011;11746;50.876;4.246;2024-01-27T09:20:10;14.88;;;4.93;;
23155;SDS011;11746;50.876;4.246;2024-01-27T09:22:36;16.48;;;4.70;;
23155;SDS011;11746;50.876;4.246;2024-01-27T09:25:04;14.95;;;4.38;;
23155;SDS011;11746;50.876;4.246;2024-01-27T09:27:30;16.08;;;4.50;;
23155;SDS011;11746;50.876;4.246;2024-01-27T09:29:56;14.07;;;4.60;;
23155;SDS011;11746;50.876;4.246;2024-01-27T09:32:24;11.50;;;4.30;;
23155;SDS011;11746;50.876;4.246;2024-01-27T09:34:49;12.23;;;4.43;;
23155;SDS011;11746;50.876;4.246;2024-01-27T09:37:18;14.10;;;4.60;;
23155;SDS011;11746;50.876;4.246;2024-01-27T09:39:46;14.35;;;4.60;;
23155;SDS011;11746;50.876;4.246;2024-01-27T09:42:14;22.90;;;5.25;;
23155;SDS011;11746;50.876;4.246;2024-01-27T09:44:43;16.65;;;5.38;;
23155;SDS011;11746;50.876;4.246;2024-01-27T09:47:12;15.30;;;4.25;;
23155;SDS011;11746;50.876;4.246;2024-01-27T09:49:44;13.55;;;4.47;;
23155;SDS011;11746;50.876;4.246;2024-01-27T09:52:10;14.07;;;4.72;;
23155;SDS011;11746;50.876;4.246;2024-01-27T09:54:36;16.55;;;4.88;;
23155;SDS011;11746;50.876;4.246;2024-01-27T09:57:01;17.85;;;4.75;;
23155;SDS011;11746;50.876;4.246;2024-01-27T09:59:28;14.75;;;4.65;;
23155;SDS011;11746;50.876;4.246;2024-01-27T10:01:54;12.35;;;4.63;;
23155;SDS011;11746;50.876;4.246;2024-01-27T10:04:25;15.02;;;4.15;;
23155;SDS011;11746;50.876;4.246;2024-01-27T10:06:54;11.38;;;3.83;;
23155;SDS011;11746;50.876;4.246;2024-01-27T10:09:22;12.98;;;3.90;;
23155;SDS011;11746;50.876;4.246;2024-01-27T10:11:48;12.90;;;3.90;;
23155;SDS011;11746;50.876;4.246;2024-01-27T10:14:14;15.50;;;4.60;;
23155;SDS011;11746;50.876;4.246;2024-01-27T10:16:43;11.82;;;4.35;;
23155;SDS011;11746;50.876;4.246;2024-01-27T10:19:17;13.82;;;4.60;;
23155;SDS011;11746;50.876;4.246;2024-01-27T10:21:46;16.05;;;3.90;;
23155;SDS011;11746;50.876;4.246;2024-01-27T10:24:13;14.93;;;3.80;;
23155;SDS011;11746;50.876;4.246;2024-01-27T10:26:41;13.60;;;3.92;;
23155;SDS011;11746;50.876;4.246;2024-01-27T10:29:09;11.32;;;3.83;;
23155;SDS011;11746;50.876;4.246;2024-01-27T10:31:37;17.90;;;4.50;;
23155;SDS011;11746;50.876;4.246;2024-01-27T10:34:03;13.10;;;3.47;;
23155;SDS011;11746;50.876;4.246;2024-01-27T10:36:39;12.65;;;4.28;;
23155;SDS011;11746;50.876;4.246;2024-01-27T10:39:19;11.75;;;3.45;;
23155;SDS011;11746;50.876;4.246;2024-01-27T10:41:46;10.68;;;3.45;;
23155;SDS011;11746;50.876;4.246;2024-01-27T10:44:13;14.55;;;4.30;;
23155;SDS011;11746;50.876;4.246;2024-01-27T10:46:44;15.43;;;4.28;;
23155;SDS011;11746;50.876;4.246;2024-01-27T10:49:14;12.65;;;3.72;;
23155;SDS011;11746;50.876;4.246;2024-01-27T10:51:43;16.20;;;4.07;;
23155;SDS011;11746;50.876;4.246;2024-01-27T10:54:23;16.92;;;4.00;;
23155;SDS011;11746;50.876;4.246;2024-01-27T10:56:53;10.15;;;3.38;;
23155;SDS011;11746;50.876;4.246;2024-01-27T10:59:21;12.70;;;3.22;;
23155;SDS011;11746;50.876;4.246;2024-01-27T11:01:48;11.82;;;3.58;;
23155;SDS011;11746;50.876;4.246;2024-01-27T11:04:18;14.80;;;3.58;;
23155;SDS011;11746;50.876;4.246;2024-01-27T11:06:45;12.35;;;4.63;;
23155;SDS011;11746;50.876;4.246;2024-01-27T11:09:12;18.00;;;3.72;;
23155;SDS011;11746;50.876;4.246;2024-01-27T11:11:42;13.45;;;4.03;;
23155;SDS011;11746;50.876;4.246;2024-01-27T11:14:09;13.15;;;3.50;;
23155;SDS011;11746;50.876;4.246;2024-01-27T11:16:38;16.38;;;3.67;;
23155;SDS011;11746;50.876;4.246;2024-01-27T11:19:09;12.27;;;4.00;;
23155;SDS011;11746;50.876;4.246;2024-01-27T11:21:36;16.40;;;4.68;;
23155;SDS011;11746;50.876;4.246;2024-01-27T11:24:12;10.40;;;3.75;;
23155;SDS011;11746;50.876;4.246;2024-01-27T11:26:42;15.52;;;3.92;;
23155;SDS011;11746;50.876;4.246;2024-01-27T11:29:07;17.02;;;3.88;;
23155;SDS011;11746;50.876;4.246;2024-01-27T11:31:44;18.17;;;3.80;;
23155;SDS011;11746;50.876;4.246;2024-01-27T11:34:10;15.32;;;4.45;;
23155;SDS011;11746;50.876;4.246;2024-01-27T11:36:42;13.88;;;4.32;;
23155;SDS011;11746;50.876;4.246;2024-01-27T11:39:26;13.40;;;3.80;;
23155;SDS011;11746;50.876;4.246;2024-01-27T11:44:37;9.30;;;3.05;;
23155;SDS011;11746;50.876;4.246;2024-01-27T11:47:07;11.15;;;3.40;;
23155;SDS011;11746;50.876;4.246;2024-01-27T11:49:43;11.93;;;3.30;;
23155;SDS011;11746;50.876;4.246;2024-01-27T11:52:15;17.08;;;3.30;;
23155;SDS011;11746;50.876;4.246;2024-01-27T11:54:41;12.80;;;3.95;;
23155;SDS011;11746;50.876;4.246;2024-01-27T11:57:08;15.20;;;4.05;;
23155;SDS011;11746;50.876;4.246;2024-01-27T11:59:37;8.45;;;3.15;;
23155;SDS011;11746;50.876;4.246;2024-01-27T12:02:05;11.82;;;3.47;;
23155;SDS011;11746;50.876;4.246;2024-01-27T12:04:30;11.00;;;3.60;;
23155;SDS011;11746;50.876;4.246;2024-01-27T12:06:59;11.18;;;2.83;;
23155;SDS011;11746;50.876;4.246;2024-01-27T12:09:24;12.55;;;3.83;;
23155;SDS011;11746;50.876;4.246;2024-01-27T12:11:50;11.23;;;3.33;;
23155;SDS011;11746;50.876;4.246;2024-01-27T12:14:16;12.25;;;3.92;;
23155;SDS011;11746;50.876;4.246;2024-01-27T12:16:42;14.82;;;3.13;;
23155;SDS011;11746;50.876;4.246;2024-01-27T12:19:12;10.60;;;2.97;;
23155;SDS011;11746;50.876;4.246;2024-01-27T12:21:48;7.95;;;2.90;;
23155;SDS011;11746;50.876;4.246;2024-01-27T12:24:15;11.63;;;2.83;;
23155;SDS011;11746;50.876;4.246;2024-01-27T12:26:44;10.30;;;3.35;;
23155;SDS011;11746;50.876;4.246;2024-01-27T12:29:11;9.35;;;2.97;;
23155;SDS011;11746;50.876;4.246;2024-01-27T12:31:43;7.50;;;3.17;;
23155;SDS011;11746;50.876;4.246;2024-01-27T12:34:09;12.82;;;2.80;;
23155;SDS011;11746;50.876;4.246;2024-01-27T12:36:39;11.65;;;3.22;;
23155;SDS011;11746;50.876;4.246;2024-01-27T12:39:10;11.45;;;3.53;;
23155;SDS011;11746;50.876;4.246;2024-01-27T12:41:36;13.38;;;3.22;;
23155;SDS011;11746;50.876;4.246;2024-01-27T12:44:05;11.70;;;3.28;;
23155;SDS011;11746;50.876;4.246;2024-01-27T12:46:31;11.05;;;3.30;;
23155;SDS011;11746;50.876;4.246;2024-01-27T12:48:59;10.05;;;3.03;;
23155;SDS011;11746;50.876;4.246;2024-01-27T12:51:28;11.50;;;3.15;;
23155;SDS011;11746;50.876;4.246;2024-01-27T12:53:56;9.82;;;2.83;;
23155;SDS011;11746;50.876;4.246;2024-01-27T12:56:26;10.60;;;3.75;;
23155;SDS011;11746;50.876;4.246;2024-01-27T12:58:52;11.55;;;4.75;;
23155;SDS011;11746;50.876;4.246;2024-01-27T13:01:17;9.75;;;3.78;;
23155;SDS011;11746;50.876;4.246;2024-01-27T13:03:45;15.68;;;4.15;;
23155;SDS011;11746;50.876;4.246;2024-01-27T13:06:11;13.50;;;4.05;;
23155;SDS011;11746;50.876;4.246;2024-01-27T13:08:37;13.52;;;4.50;;
23155;SDS011;11746;50.876;4.246;2024-01-27T13:11:03;12.70;;;3.85;;
23155;SDS011;11746;50.876;4.246;2024-01-27T13:13:29;11.07;;;4.38;;
23155;SDS011;11746;50.876;4.246;2024-01-27T13:15:57;9.75;;;3.75;;
23155;SDS011;11746;50.876;4.246;2024-01-27T13:18:24;12.18;;;4.57;;
23155;SDS011;11746;50.876;4.246;2024-01-27T13:20:50;11.38;;;4.40;;
23155;SDS011;11746;50.876;4.246;2024-01-27T13:23:18;11.82;;;4.43;;
23155;SDS011;11746;50.876;4.246;2024-01-27T13:25:44;11.05;;;4.43;;
23155;SDS011;11746;50.876;4.246;2024-01-27T13:28:14;10.95;;;4.60;;
23155;SDS011;11746;50.876;4.246;2024-01-27T13:30:40;10.35;;;4.28;;
23155;SDS011;11746;50.876;4.246;2024-01-27T13:33:07;11.32;;;5.07;;
23155;SDS011;11746;50.876;4.246;2024-01-27T13:35:32;10.30;;;4.20;;
23155;SDS011;11746;50.876;4.246;2024-01-27T13:37:58;11.10;;;4.50;;
23155;SDS011;11746;50.876;4.246;2024-01-27T13:40:26;10.38;;;4.57;;
23155;SDS011;11746;50.876;4.246;2024-01-27T13:42:52;12.40;;;4.78;;
23155;SDS011;11746;50.876;4.246;2024-01-27T13:45:18;10.50;;;4.32;;
23155;SDS011;11746;50.876;4.246;2024-01-27T13:47:44;12.48;;;4.15;;
23155;SDS011;11746;50.876;4.246;2024-01-27T13:50:09;8.77;;;3.47;;
23155;SDS011;11746;50.876;4.246;2024-01-27T13:52:38;9.05;;;3.53;;
23155;SDS011;11746;50.876;4.246;2024-01-27T13:55:04;11.07;;;3.97;;
23155;SDS011;11746;50.876;4.246;2024-01-27T13:57:30;10.25;;;3.60;;
23155;SDS011;11746;50.876;4.246;2024-01-27T13:59:55;9.23;;;3.38;;
23155;SDS011;11746;50.876;4.246;2024-01-27T14:02:23;9.13;;;3.25;;
23155;SDS011;11746;50.876;4.246;2024-01-27T14:04:50;10.75;;;3.80;;
23155;SDS011;11746;50.876;4.246;2024-01-27T14:07:16;11.48;;;4.45;;
23155;SDS011;11746;50.876;4.246;2024-01-27T14:09:42;11.35;;;3.50;;
23155;SDS011;11746;50.876;4.246;2024-01-27T14:12:09;8.43;;;3.33;;
23155;SDS011;11746;50.876;4.246;2024-01-27T14:14:37;9.85;;;3.60;;
23155;SDS011;11746;50.876;4.246;2024-01-27T14:17:05;11.02;;;3.67;;
23155;SDS011;11746;50.876;4.246;2024-01-27T14:19:30;12.20;;;3.90;;
23155;SDS011;11746;50.876;4.246;2024-01-27T14:22:00;11.35;;;4.32;;
23155;SDS011;11746;50.876;4.246;2024-01-27T14:24:28;11.13;;;4.38;;
23155;SDS011;11746;50.876;4.246;2024-01-27T14:26:54;14.10;;;5.15;;
23155;SDS011;11746;50.876;4.246;2024-01-27T14:29:20;10.02;;;4.78;;
23155;SDS011;11746;50.876;4.246;2024-01-27T14:31:45;14.60;;;4.32;;
23155;SDS011;11746;50.876;4.246;2024-01-27T14:34:11;12.63;;;4.28;;
23155;SDS011;11746;50.876;4.246;2024-01-27T14:36:39;12.05;;;4.65;;
23155;SDS011;11746;50.876;4.246;2024-01-27T14:39:05;12.18;;;4.07;;